Private Wetterstation Wechselburg
Wetterdaten: Montag, 27.06.2016
Datum Zeit Temp. +2m Bodentemp. Temp.+5cm Temp. Wind Windchill X Diff Temp. Feuchte +2m Feuchte +5cm Sonnenschein Luftdruck Regen Wind Richtung Richtung Sonnenschein Taupunkt Windchill Windben
27.06.2016 00:00 14,5 C 23,8 C 15,5 C 14,2 C 13,6 C 0,0 C 79 % 84 % 0 % 1016,6 hPa 0,0 l/m 0,0 km/h (0 Bft) SW 225 0 min 10,9 C 13,6 C 0,0 km/h (0 Bft)
27.06.2016 00:05 14,3 C 23,8 C 15,3 C 14,0 C 13,5 C 0,0 C 80 % 84 % 0 % 1016,7 hPa 0,0 l/m 0,0 km/h (0 Bft) SW 225 0 min 10,9 C 13,5 C 0,0 km/h (0 Bft)
27.06.2016 00:10 14,1 C 23,9 C 15,3 C 13,9 C 13,5 C 0,0 C 81 % 85 % 0 % 1016,7 hPa 0,0 l/m 0,0 km/h (0 Bft) O-NO 67 0 min 10,9 C 13,5 C 0,0 km/h (0 Bft)
27.06.2016 00:15 13,9 C 23,9 C 15,2 C 13,7 C 13,3 C 0,0 C 81 % 85 % 0 % 1016,7 hPa 0,0 l/m 0,0 km/h (0 Bft) O-NO 67 0 min 10,7 C 13,3 C 0,0 km/h (0 Bft)
27.06.2016 00:20 13,9 C 23,9 C 15,2 C 13,7 C 13,3 C 0,0 C 81 % 85 % 0 % 1016,7 hPa 0,0 l/m 0,0 km/h (0 Bft) N-NW 337 0 min 10,7 C 13,3 C 0,0 km/h (0 Bft)
27.06.2016 00:25 13,7 C 23,9 C 15,1 C 13,6 C 13,3 C 0,0 C 81 % 86 % 0 % 1016,8 hPa 0,0 l/m 0,0 km/h (0 Bft) NO 45 0 min 10,5 C 13,3 C 0,0 km/h (0 Bft)
27.06.2016 00:30 13,7 C 23,9 C 15,1 C 13,6 C 13,4 C 0,0 C 82 % 86 % 0 % 1016,8 hPa 0,0 l/m 0,0 km/h (0 Bft) NO 45 0 min 10,7 C 13,4 C 0,0 km/h (0 Bft)
27.06.2016 00:35 13,5 C 23,9 C 15,1 C 13,5 C 13,4 C 0,0 C 82 % 86 % 0 % 1016,8 hPa 0,0 l/m 0,0 km/h (0 Bft) NW 315 0 min 10,5 C 13,4 C 0,0 km/h (0 Bft)
27.06.2016 00:53 13,4 C 23,8 C 14,9 C 13,4 C 13,3 C 0,0 C 82 % 86 % 0 % 1016,7 hPa 0,0 l/m 0,0 km/h (0 Bft) N 0 0 min 10,4 C 13,3 C 0,0 km/h (0 Bft)
27.06.2016 00:58 13,2 C 23,9 C 14,8 C 13,2 C 13,2 C 0,0 C 83 % 87 % 0 % 1016,7 hPa 0,0 l/m 0,0 km/h (0 Bft) O-SO 112 0 min 10,4 C 13,2 C 0,0 km/h (0 Bft)
27.06.2016 01:03 13,2 C 23,9 C 14,7 C 13,2 C 13,2 C 0,0 C 83 % 87 % 0 % 1016,8 hPa 0,0 l/m 0,0 km/h (0 Bft) O-SO 112 0 min 10,4 C 13,2 C 0,0 km/h (0 Bft)
27.06.2016 01:08 13,1 C 23,9 C 14,7 C 13,0 C 12,9 C 0,0 C 83 % 87 % 0 % 1016,8 hPa 0,0 l/m 0,0 km/h (0 Bft) W-NW 292 0 min 10,3 C 12,9 C 0,0 km/h (0 Bft)
27.06.2016 01:13 13,1 C 23,9 C 14,6 C 13,0 C 12,8 C 0,0 C 83 % 87 % 0 % 1016,8 hPa 0,0 l/m 0,0 km/h (0 Bft) NW 315 0 min 10,3 C 12,8 C 0,0 km/h (0 Bft)
27.06.2016 01:18 12,9 C 23,9 C 14,4 C 12,8 C 12,7 C 0,0 C 83 % 87 % 0 % 1016,8 hPa 0,0 l/m 0,0 km/h (0 Bft) NW 315 0 min 10,1 C 12,7 C 0,0 km/h (0 Bft)
27.06.2016 01:25 12,8 C 23,9 C 14,4 C 12,8 C 12,7 C 0,0 C 83 % 87 % 0 % 1016,9 hPa 0,0 l/m 0,0 km/h (0 Bft) NW 315 0 min 10,0 C 12,7 C 0,0 km/h (0 Bft)
27.06.2016 01:35 12,8 C 24,0 C 14,4 C 12,8 C 12,7 C 0,0 C 84 % 87 % 0 % 1016,9 hPa 0,0 l/m 0,0 km/h (0 Bft) O-NO 67 0 min 10,2 C 12,7 C 0,0 km/h (0 Bft)
27.06.2016 01:45 12,7 C 23,9 C 14,3 C 12,9 C 12,9 C 0,2 C 85 % 88 % 0 % 1016,9 hPa 0,0 l/m 0,0 km/h (0 Bft) O-NO 67 0 min 10,2 C 12,9 C 0,0 km/h (0 Bft)
27.06.2016 01:50 12,7 C 23,9 C 14,3 C 12,8 C 12,8 C 0,1 C 85 % 88 % 0 % 1016,9 hPa 0,0 l/m 0,0 km/h (0 Bft) O-NO 67 0 min 10,2 C 12,8 C 0,0 km/h (0 Bft)
27.06.2016 01:55 12,7 C 23,9 C 14,3 C 12,7 C 12,7 C 0,0 C 85 % 88 % 0 % 1016,9 hPa 0,0 l/m 0,0 km/h (0 Bft) O-NO 67 0 min 10,2 C 12,7 C 0,0 km/h (0 Bft)
27.06.2016 02:00 12,5 C 23,8 C 14,3 C 12,5 C 12,5 C 0,0 C 85 % 88 % 0 % 1016,9 hPa 0,0 l/m 0,0 km/h (0 Bft) W-NW 292 0 min 10,0 C 12,5 C 0,0 km/h (0 Bft)
27.06.2016 02:05 12,4 C 23,8 C 14,2 C 12,5 C 12,5 C 0,1 C 85 % 88 % 0 % 1016,8 hPa 0,0 l/m 0,0 km/h (0 Bft) O-NO 67 0 min 9,9 C 12,5 C 0,0 km/h (0 Bft)
27.06.2016 02:10 12,5 C 23,8 C 14,1 C 12,5 C 12,5 C 0,0 C 85 % 88 % 0 % 1016,8 hPa 0,0 l/m 0,0 km/h (0 Bft) O-NO 67 0 min 10,0 C 12,5 C 0,0 km/h (0 Bft)
27.06.2016 02:15 12,4 C 23,8 C 14,1 C 12,6 C 12,6 C 0,2 C 85 % 88 % 0 % 1016,8 hPa 0,0 l/m 0,0 km/h (0 Bft) O-NO 67 0 min 9,9 C 12,6 C 0,0 km/h (0 Bft)
27.06.2016 02:20 12,4 C 23,8 C 14,1 C 12,5 C 12,5 C 0,1 C 85 % 88 % 0 % 1016,8 hPa 0,0 l/m 0,0 km/h (0 Bft) O-NO 67 0 min 9,9 C 12,5 C 0,0 km/h (0 Bft)
27.06.2016 02:25 12,3 C 23,8 C 14,0 C 12,5 C 12,5 C 0,2 C 85 % 88 % 0 % 1017,1 hPa 0,0 l/m 0,0 km/h (0 Bft) O-NO 67 0 min 9,9 C 12,5 C 0,0 km/h (0 Bft)
27.06.2016 02:30 12,3 C 23,8 C 14,0 C 12,4 C 12,4 C 0,1 C 85 % 88 % 0 % 1017,1 hPa 0,0 l/m 0,0 km/h (0 Bft) O-NO 67 0 min 9,9 C 12,4 C 0,0 km/h (0 Bft)
27.06.2016 02:35 12,1 C 23,8 C 13,9 C 12,3 C 12,3 C 0,2 C 85 % 87 % 0 % 1017,1 hPa 0,0 l/m 0,0 km/h (0 Bft) O-NO 67 0 min 9,7 C 12,3 C 0,0 km/h (0 Bft)
27.06.2016 02:40 12,0 C 23,8 C 13,9 C 12,1 C 12,1 C 0,1 C 85 % 87 % 0 % 1017,1 hPa 0,0 l/m 0,0 km/h (0 Bft) O-NO 67 0 min 9,6 C 12,1 C 0,0 km/h (0 Bft)
27.06.2016 02:45 12,0 C 23,6 C 13,8 C 12,0 C 12,0 C 0,0 C 85 % 87 % 0 % 1016,6 hPa 0,0 l/m 0,0 km/h (0 Bft) W 270 0 min 9,6 C 12,0 C 0,0 km/h (0 Bft)
27.06.2016 02:50 11,9 C 23,6 C 13,7 C 11,9 C 11,9 C 0,0 C 85 % 87 % 0 % 1016,6 hPa 0,0 l/m 0,0 km/h (0 Bft) S 180 0 min 9,5 C 11,9 C 0,0 km/h (0 Bft)
27.06.2016 02:55 11,9 C 23,6 C 13,7 C 11,9 C 11,9 C 0,0 C 85 % 87 % 0 % 1016,6 hPa 0,0 l/m 0,0 km/h (0 Bft) O-SO 112 0 min 9,5 C 11,9 C 0,0 km/h (0 Bft)
27.06.2016 03:00 11,8 C 23,6 C 13,7 C 11,9 C 11,9 C 0,1 C 85 % 87 % 0 % 1016,6 hPa 0,0 l/m 0,0 km/h (0 Bft) W 270 0 min 9,4 C 11,9 C 0,0 km/h (0 Bft)
27.06.2016 03:05 11,9 C 23,5 C 13,7 C 11,9 C 11,9 C 0,0 C 85 % 87 % 0 % 1016,9 hPa 0,0 l/m 0,0 km/h (0 Bft) NO 45 0 min 9,5 C 11,9 C 0,0 km/h (0 Bft)
27.06.2016 03:10 11,7 C 23,5 C 13,7 C 11,9 C 11,9 C 0,2 C 85 % 87 % 0 % 1016,9 hPa 0,0 l/m 0,0 km/h (0 Bft) SO 135 0 min 9,3 C 11,9 C 0,0 km/h (0 Bft)
27.06.2016 03:20 11,7 C 23,5 C 13,6 C 12,0 C 12,0 C 0,3 C 85 % 86 % 0 % 1016,9 hPa 0,0 l/m 0,0 km/h (0 Bft) O-SO 112 0 min 9,3 C 12,0 C 0,0 km/h (0 Bft)
27.06.2016 03:25 11,7 C 23,5 C 13,6 C 12,0 C 12,0 C 0,3 C 85 % 87 % 0 % 1017,1 hPa 0,0 l/m 0,0 km/h (0 Bft) O-SO 112 0 min 9,3 C 12,0 C 0,0 km/h (0 Bft)
27.06.2016 03:35 11,7 C 23,6 C 13,6 C 12,0 C 12,0 C 0,3 C 85 % 86 % 0 % 1017,1 hPa 0,0 l/m 0,0 km/h (0 Bft) W-SW 247 0 min 9,3 C 12,0 C 0,0 km/h (0 Bft)
27.06.2016 03:42 11,6 C 23,6 C 13,5 C 11,9 C 11,9 C 0,3 C 85 % 86 % 0 % 1017,1 hPa 0,0 l/m 0,0 km/h (0 Bft) N 0 0 min 9,2 C 11,9 C 0,0 km/h (0 Bft)
27.06.2016 04:05 11,3 C 23,5 C 13,3 C 11,5 C 11,5 C 0,2 C 84 % 86 % 0 % 1017,7 hPa 0,0 l/m 0,0 km/h (0 Bft) S 180 0 min 8,7 C 11,5 C 0,0 km/h (0 Bft)
27.06.2016 04:31 11,1 C 23,4 C 13,1 C 11,2 C 11,2 C 0,1 C 84 % 86 % 0 % 1017,1 hPa 0,0 l/m 0,0 km/h (0 Bft) S-SO 157 0 min 8,5 C 11,2 C 0,0 km/h (0 Bft)
27.06.2016 04:32 11,1 C 23,4 C 13,1 C 11,2 C 11,2 C 0,1 C 84 % 86 % 0 % 1017,1 hPa 0,0 l/m 0,0 km/h (0 Bft) S-SO 157 0 min 8,5 C 11,2 C 0,0 km/h (0 Bft)
27.06.2016 04:33 11,1 C 23,4 C 13,1 C 11,2 C 11,2 C 0,1 C 84 % 86 % 0 % 1017,1 hPa 0,0 l/m 0,0 km/h (0 Bft) S-SO 157 0 min 8,5 C 11,2 C 0,0 km/h (0 Bft)
27.06.2016 04:34 11,1 C 23,5 C 13,1 C 11,4 C 11,4 C 0,3 C 84 % 86 % 0 % 1017,1 hPa 0,0 l/m 0,0 km/h (0 Bft) O-NO 67 0 min 8,5 C 11,4 C 0,0 km/h (0 Bft)
27.06.2016 04:35 11,1 C 23,5 C 13,1 C 11,4 C 11,4 C 0,3 C 84 % 86 % 0 % 1017,1 hPa 0,0 l/m 0,0 km/h (0 Bft) O-NO 67 0 min 8,5 C 11,4 C 0,0 km/h (0 Bft)
27.06.2016 04:38 11,1 C 23,5 C 13,1 C 11,4 C 11,4 C 0,3 C 84 % 86 % 0 % 1017,1 hPa 0,0 l/m 0,0 km/h (0 Bft) O-NO 67 0 min 8,5 C 11,4 C 0,0 km/h (0 Bft)
27.06.2016 04:49 11,1 C 23,5 C 13,0 C 11,5 C 11,5 C 0,4 C 85 % 87 % 0 % 1017,4 hPa 0,0 l/m 0,0 km/h (0 Bft) O-NO 67 0 min 8,7 C 11,5 C 0,0 km/h (0 Bft)
27.06.2016 04:50 11,1 C 23,5 C 13,0 C 11,5 C 11,5 C 0,4 C 85 % 87 % 0 % 1017,4 hPa 0,0 l/m 0,0 km/h (0 Bft) O-NO 67 0 min 8,7 C 11,5 C 0,0 km/h (0 Bft)
27.06.2016 04:51 11,1 C 23,5 C 13,0 C 11,5 C 11,5 C 0,4 C 85 % 87 % 0 % 1017,4 hPa 0,0 l/m 0,0 km/h (0 Bft) O-NO 67 0 min 8,7 C 11,5 C 0,0 km/h (0 Bft)
27.06.2016 04:52 11,1 C 23,5 C 13,0 C 11,5 C 11,5 C 0,4 C 85 % 87 % 0 % 1017,4 hPa 0,0 l/m 0,0 km/h (0 Bft) O-NO 67 0 min 8,7 C 11,5 C 0,0 km/h (0 Bft)
27.06.2016 04:53 11,1 C 23,5 C 13,0 C 11,5 C 11,5 C 0,4 C 85 % 87 % 0 % 1017,4 hPa 0,0 l/m 0,0 km/h (0 Bft) O-NO 67 0 min 8,7 C 11,5 C 0,0 km/h (0 Bft)
27.06.2016 04:56 11,0 C 23,4 C 12,9 C 11,4 C 11,4 C 0,4 C 85 % 87 % 0 % 1017,4 hPa 0,0 l/m 0,0 km/h (0 Bft) NW 315 0 min 8,6 C 11,4 C 0,0 km/h (0 Bft)
27.06.2016 05:05 11,0 C 23,4 C 12,9 C 11,2 C 11,2 C 0,2 C 85 % 87 % 0 % 1017,6 hPa 0,0 l/m 0,0 km/h (0 Bft) O-NO 67 0 min 8,6 C 11,2 C 0,0 km/h (0 Bft)
27.06.2016 05:15 10,9 C 23,4 C 12,8 C 11,2 C 11,2 C 0,3 C 85 % 87 % 8 % 1017,6 hPa 0,0 l/m 0,0 km/h (0 Bft) O 90 10 min 8,5 C 11,2 C 0,0 km/h (0 Bft)
27.06.2016 05:20 10,9 C 23,4 C 12,9 C 11,4 C 11,4 C 0,5 C 85 % 87 % 13 % 1017,6 hPa 0,0 l/m 0,0 km/h (0 Bft) O-NO 67 5 min 8,5 C 11,4 C 0,0 km/h (0 Bft)
27.06.2016 05:25 11,0 C 23,3 C 12,9 C 11,6 C 11,6 C 0,6 C 85 % 87 % 16 % 1017,5 hPa 0,0 l/m 0,0 km/h (0 Bft) O-NO 67 5 min 8,6 C 11,6 C 0,0 km/h (0 Bft)
27.06.2016 05:30 11,1 C 23,3 C 13,1 C 12,0 C 12,0 C 0,9 C 85 % 87 % 24 % 1017,5 hPa 0,0 l/m 0,0 km/h (0 Bft) O-NO 67 5 min 8,7 C 12,0 C 0,0 km/h (0 Bft)
27.06.2016 05:35 11,2 C 23,3 C 13,2 C 12,3 C 12,3 C 1,1 C 85 % 87 % 29 % 1017,5 hPa 0,0 l/m 0,0 km/h (0 Bft) O-NO 67 5 min 8,8 C 12,3 C 0,0 km/h (0 Bft)
27.06.2016 05:40 11,3 C 23,2 C 13,2 C 12,5 C 12,5 C 1,2 C 85 % 87 % 32 % 1017,5 hPa 0,0 l/m 0,0 km/h (0 Bft) O-NO 67 5 min 8,9 C 12,5 C 0,0 km/h (0 Bft)
27.06.2016 05:45 11,2 C 23,2 C 13,3 C 12,7 C 12,7 C 1,5 C 85 % 87 % 39 % 1017,8 hPa 0,0 l/m 0,0 km/h (0 Bft) O-NO 67 5 min 8,8 C 12,7 C 0,0 km/h (0 Bft)
27.06.2016 05:50 11,5 C 23,2 C 13,5 C 12,8 C 12,8 C 1,3 C 85 % 87 % 34 % 1017,8 hPa 0,0 l/m 0,0 km/h (0 Bft) O-NO 67 5 min 9,1 C 12,8 C 0,0 km/h (0 Bft)
27.06.2016 05:55 11,4 C 23,2 C 13,4 C 12,8 C 12,8 C 1,4 C 85 % 87 % 37 % 1017,8 hPa 0,0 l/m 0,0 km/h (0 Bft) O-NO 67 5 min 9,0 C 12,8 C 0,0 km/h (0 Bft)
27.06.2016 06:00 11,6 C 23,2 C 13,5 C 13,0 C 13,0 C 1,4 C 85 % 86 % 37 % 1017,8 hPa 0,0 l/m 0,0 km/h (0 Bft) W 270 5 min 9,2 C 13,0 C 0,0 km/h (0 Bft)
27.06.2016 06:05 11,7 C 23,1 C 13,7 C 13,1 C 13,1 C 1,4 C 85 % 86 % 37 % 1017,8 hPa 0,0 l/m 0,0 km/h (0 Bft) SO 135 5 min 9,3 C 13,1 C 0,0 km/h (0 Bft)
27.06.2016 06:10 11,7 C 23,1 C 13,7 C 13,4 C 13,4 C 1,7 C 85 % 86 % 45 % 1017,8 hPa 0,0 l/m 0,2 km/h (0 Bft) S-SW 202 5 min 9,3 C 13,4 C 1,9 km/h (1 Bft)
27.06.2016 06:15 11,9 C 23,1 C 13,9 C 13,5 C 13,5 C 1,6 C 85 % 86 % 42 % 1017,8 hPa 0,0 l/m 0,2 km/h (0 Bft) S 180 0 min 9,5 C 13,5 C 0,0 km/h (0 Bft)
27.06.2016 06:20 11,9 C 23,1 C 13,9 C 13,8 C 13,8 C 1,9 C 85 % 86 % 50 % 1017,8 hPa 0,0 l/m 0,2 km/h (0 Bft) O 90 5 min 9,5 C 13,8 C 0,0 km/h (0 Bft)
27.06.2016 06:25 12,0 C 23,1 C 13,9 C 14,0 C 14,0 C 2,0 C 85 % 86 % 53 % 1017,9 hPa 0,0 l/m 0,0 km/h (0 Bft) N-NW 337 5 min 9,6 C 14,0 C 0,0 km/h (0 Bft)
27.06.2016 06:30 12,3 C 23,1 C 14,0 C 14,3 C 14,3 C 2,0 C 85 % 86 % 53 % 1017,9 hPa 0,0 l/m 0,0 km/h (0 Bft) W-SW 247 5 min 9,9 C 14,3 C 0,0 km/h (0 Bft)
27.06.2016 06:35 12,3 C 23,1 C 14,3 C 14,7 C 14,7 C 2,4 C 85 % 86 % 63 % 1017,9 hPa 0,0 l/m 0,2 km/h (0 Bft) S 180 5 min 9,9 C 14,7 C 2,3 km/h (1 Bft)
27.06.2016 06:56 12,8 C 23,1 C 14,7 C 15,6 C 15,6 C 2,8 C 84 % 85 % 74 % 1017,9 hPa 0,0 l/m 0,0 km/h (0 Bft) N 0 21 min 10,2 C 15,6 C 0,0 km/h (0 Bft)
27.06.2016 07:21 14,3 C 23,0 C 15,6 C 23,6 C 23,6 C 9,3 C 83 % 84 % 100 % 1017,9 hPa 0,0 l/m 0,0 km/h (0 Bft) S-SW 202 25 min 11,5 C 23,6 C 0,0 km/h (0 Bft)
27.06.2016 07:23 14,7 C 23,0 C 15,8 C 24,8 C 24,8 C 10,1 C 82 % 83 % 100 % 1018,0 hPa 0,0 l/m 0,0 km/h (0 Bft) W-SW 247 2 min 11,7 C 24,8 C 0,0 km/h (0 Bft)
27.06.2016 07:30 15,6 C 22,9 C 16,1 C 26,0 C 26,0 C 10,4 C 80 % 83 % 100 % 1018,0 hPa 0,0 l/m 0,6 km/h (0 Bft) S 180 7 min 12,2 C 26,0 C 3,2 km/h (1 Bft)
27.06.2016 07:40 16,8 C 22,9 C 16,5 C 25,3 C 25,3 C 8,5 C 78 % 82 % 100 % 1018,0 hPa 0,0 l/m 0,3 km/h (0 Bft) N-NW 337 10 min 12,9 C 25,3 C 0,0 km/h (0 Bft)
27.06.2016 07:50 17,5 C 22,9 C 16,6 C 23,2 C 23,2 C 5,7 C 75 % 81 % 100 % 1017,9 hPa 0,0 l/m 0,5 km/h (0 Bft) W-SW 247 10 min 13,0 C 23,2 C 2,1 km/h (1 Bft)
27.06.2016 07:55 17,5 C 22,9 C 16,6 C 21,9 C 21,9 C 4,4 C 74 % 81 % 100 % 1017,9 hPa 0,0 l/m 0,6 km/h (0 Bft) W 270 5 min 12,8 C 21,9 C 0,0 km/h (0 Bft)
27.06.2016 08:00 17,4 C 22,9 C 16,6 C 20,5 C 20,5 C 3,1 C 73 % 80 % 82 % 1017,9 hPa 0,0 l/m 0,8 km/h (0 Bft) S-SW 202 0 min 12,5 C 20,5 C 0,0 km/h (0 Bft)
27.06.2016 08:05 17,3 C 22,8 C 16,5 C 19,6 C 19,6 C 2,3 C 72 % 79 % 61 % 1018,1 hPa 0,0 l/m 1,1 km/h (1 Bft) W 270 0 min 12,2 C 19,6 C 0,0 km/h (0 Bft)
27.06.2016 08:15 16,9 C 22,8 C 16,4 C 18,2 C 18,2 C 1,3 C 72 % 78 % 34 % 1018,1 hPa 0,0 l/m 1,8 km/h (1 Bft) S-SW 202 0 min 11,8 C 18,2 C 0,0 km/h (0 Bft)
27.06.2016 08:20 16,8 C 22,8 C 16,4 C 18,0 C 18,0 C 1,2 C 72 % 79 % 32 % 1018,1 hPa 0,0 l/m 1,9 km/h (1 Bft) S 180 0 min 11,7 C 18,0 C 6,8 km/h (2 Bft)
27.06.2016 08:30 16,9 C 22,8 C 16,3 C 17,9 C 17,9 C 1,0 C 71 % 78 % 26 % 1018,3 hPa 0,0 l/m 1,4 km/h (1 Bft) SW 225 0 min 11,6 C 17,9 C 1,6 km/h (1 Bft)
27.06.2016 08:31 16,9 C 22,8 C 16,3 C 17,9 C 17,9 C 1,0 C 71 % 78 % 26 % 1018,3 hPa 0,0 l/m 1,4 km/h (1 Bft) SW 225 0 min 11,6 C 17,9 C 1,6 km/h (1 Bft)
27.06.2016 08:32 16,9 C 22,8 C 16,3 C 17,9 C 17,9 C 1,0 C 71 % 78 % 26 % 1018,3 hPa 0,0 l/m 1,4 km/h (1 Bft) SW 225 0 min 11,6 C 17,9 C 1,6 km/h (1 Bft)
27.06.2016 08:33 16,9 C 22,8 C 16,3 C 17,9 C 17,9 C 1,0 C 71 % 78 % 26 % 1018,3 hPa 0,0 l/m 1,4 km/h (1 Bft) SW 225 0 min 11,6 C 17,9 C 1,6 km/h (1 Bft)
27.06.2016 08:34 16,8 C 22,8 C 16,3 C 18,0 C 18,0 C 1,2 C 72 % 78 % 32 % 1018,3 hPa 0,0 l/m 1,0 km/h (0 Bft) SW 225 0 min 11,7 C 18,0 C 3,1 km/h (1 Bft)
27.06.2016 08:38 16,8 C 22,8 C 16,4 C 18,1 C 18,1 C 1,3 C 72 % 78 % 34 % 1018,3 hPa 0,0 l/m 1,1 km/h (1 Bft) W-SW 247 0 min 11,7 C 18,1 C 3,5 km/h (1 Bft)
27.06.2016 08:43 16,8 C 22,8 C 16,4 C 18,2 C 18,2 C 1,4 C 71 % 78 % 37 % 1018,5 hPa 0,0 l/m 1,0 km/h (0 Bft) W 270 0 min 11,5 C 18,2 C 2,1 km/h (1 Bft)
27.06.2016 08:48 16,9 C 22,8 C 16,5 C 18,7 C 18,7 C 1,8 C 72 % 78 % 47 % 1018,5 hPa 0,0 l/m 1,0 km/h (0 Bft) SW 225 0 min 11,8 C 18,7 C 0,0 km/h (0 Bft)
27.06.2016 08:53 16,9 C 22,8 C 16,7 C 19,2 C 19,2 C 2,3 C 71 % 77 % 61 % 1018,5 hPa 0,0 l/m 1,6 km/h (1 Bft) S 180 0 min 11,6 C 19,2 C 3,2 km/h (1 Bft)
27.06.2016 08:58 17,1 C 22,8 C 16,7 C 19,6 C 19,6 C 2,5 C 71 % 77 % 66 % 1018,5 hPa 0,0 l/m 2,4 km/h (1 Bft) S 180 0 min 11,8 C 19,6 C 7,7 km/h (2 Bft)
27.06.2016 09:03 17,1 C 22,8 C 16,7 C 19,6 C 19,6 C 2,5 C 71 % 77 % 66 % 1018,5 hPa 0,0 l/m 2,1 km/h (1 Bft) S-SO 157 0 min 11,8 C 19,6 C 3,2 km/h (1 Bft)
27.06.2016 09:08 17,1 C 22,8 C 16,8 C 19,6 C 19,6 C 2,5 C 72 % 77 % 66 % 1018,5 hPa 0,0 l/m 1,6 km/h (1 Bft) SW 225 0 min 12,0 C 19,6 C 3,9 km/h (1 Bft)
27.06.2016 09:13 17,3 C 22,8 C 16,8 C 19,5 C 19,5 C 2,2 C 71 % 77 % 58 % 1018,5 hPa 0,0 l/m 1,8 km/h (1 Bft) W-SW 247 0 min 12,0 C 19,5 C 2,4 km/h (1 Bft)
27.06.2016 09:18 17,3 C 22,8 C 16,8 C 19,6 C 19,6 C 2,3 C 71 % 77 % 61 % 1018,5 hPa 0,0 l/m 2,3 km/h (1 Bft) S 180 0 min 12,0 C 19,6 C 0,0 km/h (0 Bft)
27.06.2016 09:23 17,3 C 22,8 C 16,9 C 19,7 C 19,7 C 2,4 C 72 % 78 % 63 % 1018,6 hPa 0,0 l/m 1,4 km/h (1 Bft) SW 225 0 min 12,2 C 19,7 C 1,6 km/h (1 Bft)
27.06.2016 09:28 17,5 C 22,8 C 17,0 C 20,3 C 20,3 C 2,8 C 72 % 77 % 74 % 1018,6 hPa 0,0 l/m 1,3 km/h (1 Bft) W 270 0 min 12,4 C 20,3 C 1,8 km/h (1 Bft)
27.06.2016 09:37 17,7 C 22,8 C 17,1 C 20,4 C 20,4 C 2,7 C 70 % 77 % 71 % 1018,6 hPa 0,0 l/m 1,8 km/h (1 Bft) W-SW 247 0 min 12,2 C 20,4 C 4,0 km/h (1 Bft)
27.06.2016 09:45 17,6 C 22,8 C 17,1 C 20,5 C 20,5 C 2,9 C 70 % 75 % 76 % 1018,8 hPa 0,0 l/m 2,4 km/h (1 Bft) SW 225 0 min 12,1 C 20,5 C 2,4 km/h (1 Bft)
27.06.2016 09:50 17,7 C 22,8 C 17,3 C 21,4 C 21,4 C 3,7 C 70 % 76 % 97 % 1018,8 hPa 0,0 l/m 1,9 km/h (1 Bft) S-SW 202 5 min 12,2 C 21,4 C 3,1 km/h (1 Bft)
27.06.2016 09:55 17,9 C 22,8 C 17,5 C 22,0 C 22,0 C 4,1 C 70 % 76 % 100 % 1018,8 hPa 0,0 l/m 1,6 km/h (1 Bft) S-SW 202 5 min 12,3 C 22,0 C 1,8 km/h (1 Bft)
27.06.2016 10:05 18,1 C 22,8 C 17,5 C 23,4 C 23,4 C 5,3 C 69 % 75 % 100 % 1018,7 hPa 0,0 l/m 2,4 km/h (1 Bft) SO 135 10 min 12,3 C 23,4 C 5,3 km/h (1 Bft)
27.06.2016 10:15 18,2 C 22,8 C 17,5 C 22,8 C 22,8 C 4,6 C 68 % 74 % 100 % 1018,7 hPa 0,0 l/m 2,6 km/h (1 Bft) SW 225 10 min 12,2 C 22,8 C 4,0 km/h (1 Bft)
27.06.2016 10:25 18,1 C 22,8 C 17,3 C 23,6 C 23,6 C 5,5 C 68 % 75 % 100 % 1018,6 hPa 0,0 l/m 1,3 km/h (1 Bft) NW 315 10 min 12,1 C 23,6 C 1,6 km/h (1 Bft)
27.06.2016 10:35 18,3 C 22,8 C 17,5 C 26,3 C 26,3 C 8,0 C 67 % 74 % 100 % 1018,6 hPa 0,0 l/m 2,3 km/h (1 Bft) S 180 10 min 12,1 C 26,3 C 1,8 km/h (1 Bft)
27.06.2016 10:45 18,7 C 22,7 C 17,4 C 27,1 C 27,1 C 8,4 C 65 % 73 % 100 % 1018,3 hPa 0,0 l/m 1,9 km/h (1 Bft) S-SO 157 10 min 12,0 C 27,1 C 2,6 km/h (1 Bft)
27.06.2016 10:55 19,1 C 22,7 C 17,6 C 27,1 C 27,1 C 8,0 C 62 % 71 % 100 % 1018,3 hPa 0,0 l/m 1,9 km/h (1 Bft) N 360 10 min 11,6 C 27,1 C 3,4 km/h (1 Bft)
27.06.2016 11:00 19,3 C 22,7 C 17,6 C 26,9 C 26,9 C 7,6 C 62 % 71 % 100 % 1018,3 hPa 0,0 l/m 2,6 km/h (1 Bft) S-SW 202 5 min 11,8 C 26,9 C 5,3 km/h (1 Bft)
27.06.2016 11:01 19,3 C 22,7 C 17,6 C 26,9 C 26,9 C 7,6 C 62 % 71 % 100 % 1018,3 hPa 0,0 l/m 2,6 km/h (1 Bft) S-SW 202 1 min 11,8 C 26,9 C 5,3 km/h (1 Bft)
27.06.2016 11:02 19,3 C 22,7 C 17,6 C 26,9 C 26,9 C 7,6 C 62 % 71 % 100 % 1018,3 hPa 0,0 l/m 2,6 km/h (1 Bft) S-SW 202 1 min 11,8 C 26,9 C 5,3 km/h (1 Bft)
27.06.2016 11:03 19,3 C 22,7 C 17,6 C 26,9 C 26,9 C 7,6 C 62 % 71 % 100 % 1018,3 hPa 0,0 l/m 2,6 km/h (1 Bft) S-SW 202 1 min 11,8 C 26,9 C 5,3 km/h (1 Bft)
27.06.2016 11:04 19,5 C 22,7 C 17,7 C 26,5 C 26,5 C 7,0 C 61 % 70 % 100 % 1018,4 hPa 0,0 l/m 2,7 km/h (1 Bft) S-SO 157 1 min 11,8 C 26,5 C 2,6 km/h (1 Bft)
27.06.2016 11:08 19,5 C 22,7 C 17,7 C 26,5 C 26,5 C 7,0 C 61 % 70 % 100 % 1018,4 hPa 0,0 l/m 2,7 km/h (1 Bft) S-SO 157 4 min 11,8 C 26,5 C 2,6 km/h (1 Bft)
27.06.2016 11:19 19,5 C 22,7 C 18,0 C 26,4 C 26,4 C 6,9 C 59 % 69 % 100 % 1018,4 hPa 0,0 l/m 2,9 km/h (1 Bft) SW 225 11 min 11,3 C 26,4 C 1,9 km/h (1 Bft)
27.06.2016 11:20 19,5 C 22,7 C 18,0 C 26,4 C 26,4 C 6,9 C 59 % 69 % 100 % 1018,4 hPa 0,0 l/m 2,9 km/h (1 Bft) SW 225 1 min 11,3 C 26,4 C 1,9 km/h (1 Bft)
27.06.2016 11:21 19,5 C 22,7 C 18,0 C 26,4 C 26,4 C 6,9 C 59 % 69 % 100 % 1018,4 hPa 0,0 l/m 2,9 km/h (1 Bft) SW 225 1 min 11,3 C 26,4 C 1,9 km/h (1 Bft)
27.06.2016 11:22 19,5 C 22,7 C 18,0 C 26,4 C 26,4 C 6,9 C 59 % 69 % 100 % 1018,4 hPa 0,0 l/m 2,9 km/h (1 Bft) SW 225 1 min 11,3 C 26,4 C 1,9 km/h (1 Bft)
27.06.2016 11:23 19,5 C 22,7 C 18,0 C 26,4 C 26,4 C 6,9 C 59 % 69 % 100 % 1018,4 hPa 0,0 l/m 2,9 km/h (1 Bft) SW 225 1 min 11,3 C 26,4 C 1,9 km/h (1 Bft)
27.06.2016 11:25 19,5 C 22,7 C 18,0 C 26,7 C 26,7 C 7,2 C 60 % 69 % 100 % 1018,2 hPa 0,0 l/m 2,3 km/h (1 Bft) N-NW 337 2 min 11,5 C 26,7 C 1,6 km/h (1 Bft)
27.06.2016 11:36 19,6 C 22,7 C 18,3 C 27,4 C 27,4 C 7,8 C 60 % 69 % 100 % 1018,2 hPa 0,0 l/m 1,9 km/h (1 Bft) S 180 11 min 11,6 C 27,4 C 3,5 km/h (1 Bft)
27.06.2016 11:37 19,6 C 22,7 C 18,3 C 27,4 C 27,4 C 7,8 C 60 % 69 % 100 % 1018,2 hPa 0,0 l/m 1,9 km/h (1 Bft) S 180 1 min 11,6 C 27,4 C 3,5 km/h (1 Bft)
27.06.2016 11:38 19,6 C 22,7 C 18,3 C 27,4 C 27,4 C 7,8 C 60 % 69 % 100 % 1018,2 hPa 0,0 l/m 1,9 km/h (1 Bft) S 180 1 min 11,6 C 27,4 C 3,5 km/h (1 Bft)
27.06.2016 11:39 19,6 C 22,7 C 18,5 C 27,3 C 27,3 C 7,7 C 61 % 69 % 100 % 1018,2 hPa 0,0 l/m 2,7 km/h (1 Bft) W 270 1 min 11,9 C 27,3 C 4,0 km/h (1 Bft)
27.06.2016 11:40 19,6 C 22,7 C 18,5 C 27,3 C 27,3 C 7,7 C 61 % 69 % 100 % 1018,2 hPa 0,0 l/m 2,7 km/h (1 Bft) W 270 1 min 11,9 C 27,3 C 4,0 km/h (1 Bft)
27.06.2016 11:43 19,6 C 22,7 C 18,5 C 27,3 C 27,3 C 7,7 C 61 % 69 % 100 % 1018,2 hPa 0,0 l/m 2,7 km/h (1 Bft) W 270 3 min 11,9 C 27,3 C 4,0 km/h (1 Bft)
27.06.2016 11:50 20,1 C 22,7 C 19,1 C 27,5 C 27,5 C 7,4 C 60 % 68 % 100 % 1018,2 hPa 0,0 l/m 2,7 km/h (1 Bft) W 270 7 min 12,1 C 27,5 C 2,9 km/h (1 Bft)
27.06.2016 12:00 20,5 C 22,7 C 19,5 C 28,1 C 28,1 C 7,6 C 58 % 66 % 100 % 1018,2 hPa 0,0 l/m 2,9 km/h (1 Bft) W-SW 247 10 min 11,9 C 28,1 C 6,1 km/h (2 Bft)
27.06.2016 12:05 20,7 C 22,7 C 19,5 C 27,2 C 27,2 C 6,5 C 58 % 66 % 100 % 1018,1 hPa 0,0 l/m 2,4 km/h (1 Bft) SW 225 5 min 12,1 C 27,2 C 1,9 km/h (1 Bft)
27.06.2016 12:10 20,8 C 22,8 C 19,5 C 27,5 C 27,5 C 6,7 C 59 % 67 % 100 % 1018,1 hPa 0,0 l/m 2,1 km/h (1 Bft) SW 225 5 min 12,5 C 27,5 C 0,0 km/h (0 Bft)
27.06.2016 12:15 21,1 C 22,8 C 19,7 C 27,7 C 27,7 C 6,6 C 58 % 67 % 100 % 1018,1 hPa 0,0 l/m 2,3 km/h (1 Bft) W 270 5 min 12,5 C 27,7 C 2,9 km/h (1 Bft)
27.06.2016 12:20 21,5 C 22,7 C 19,9 C 28,1 C 28,1 C 6,6 C 57 % 66 % 100 % 1018,1 hPa 0,0 l/m 2,6 km/h (1 Bft) SO 135 5 min 12,6 C 28,1 C 4,0 km/h (1 Bft)
27.06.2016 12:25 21,9 C 22,7 C 20,0 C 28,2 C 28,2 C 6,3 C 56 % 65 % 100 % 1017,9 hPa 0,0 l/m 2,6 km/h (1 Bft) N-NW 337 5 min 12,7 C 28,2 C 0,0 km/h (0 Bft)
27.06.2016 12:30 22,0 C 22,7 C 19,9 C 27,6 C 27,6 C 5,6 C 54 % 64 % 100 % 1017,9 hPa 0,0 l/m 3,2 km/h (1 Bft) SW 225 5 min 12,3 C 27,6 C 8,7 km/h (2 Bft)
27.06.2016 12:35 21,9 C 22,7 C 20,1 C 27,3 C 27,3 C 5,4 C 55 % 65 % 100 % 1017,9 hPa 0,0 l/m 3,2 km/h (1 Bft) S-SW 202 5 min 12,4 C 27,3 C 2,9 km/h (1 Bft)
27.06.2016 12:49 23,0 C 22,7 C 20,4 C 28,0 C 28,0 C 5,0 C 53 % 65 % 100 % 1017,8 hPa 0,0 l/m 2,9 km/h (1 Bft) N 0 14 min 12,9 C 28,0 C 3,7 km/h (1 Bft)
27.06.2016 13:11 23,4 C 22,8 C 21,1 C 28,2 C 28,2 C 4,8 C 52 % 62 % 100 % 1017,9 hPa 0,0 l/m 2,7 km/h (1 Bft) SW 225 22 min 13,0 C 28,2 C 4,7 km/h (1 Bft)
27.06.2016 13:12 23,4 C 22,8 C 21,1 C 28,2 C 28,2 C 4,8 C 52 % 62 % 100 % 1017,9 hPa 0,0 l/m 2,7 km/h (1 Bft) SW 225 1 min 13,0 C 28,2 C 4,7 km/h (1 Bft)
27.06.2016 13:13 23,4 C 22,8 C 21,1 C 28,2 C 28,2 C 4,8 C 52 % 62 % 100 % 1017,9 hPa 0,0 l/m 2,7 km/h (1 Bft) SW 225 1 min 13,0 C 28,2 C 4,7 km/h (1 Bft)
27.06.2016 13:14 23,6 C 22,8 C 21,2 C 28,5 C 28,5 C 4,9 C 51 % 61 % 100 % 1017,9 hPa 0,0 l/m 2,9 km/h (1 Bft) O 90 1 min 12,9 C 28,5 C 0,0 km/h (0 Bft)
27.06.2016 13:18 23,6 C 22,8 C 21,2 C 28,5 C 28,5 C 4,9 C 51 % 61 % 100 % 1017,9 hPa 0,0 l/m 2,9 km/h (1 Bft) O 90 4 min 12,9 C 28,5 C 0,0 km/h (0 Bft)
27.06.2016 13:23 23,2 C 22,8 C 20,9 C 27,2 C 27,2 C 4,0 C 50 % 61 % 100 % 1017,8 hPa 0,0 l/m 1,9 km/h (1 Bft) S-SW 202 5 min 12,2 C 27,2 C 3,1 km/h (1 Bft)
27.06.2016 13:28 23,2 C 22,8 C 20,8 C 26,7 C 26,7 C 3,5 C 50 % 61 % 92 % 1017,8 hPa 0,0 l/m 2,6 km/h (1 Bft) W-SW 247 5 min 12,2 C 26,7 C 2,9 km/h (1 Bft)
27.06.2016 13:33 23,5 C 22,8 C 21,0 C 27,2 C 27,2 C 3,7 C 49 % 61 % 97 % 1017,8 hPa 0,0 l/m 2,7 km/h (1 Bft) S-SW 202 5 min 12,2 C 27,2 C 6,9 km/h (2 Bft)
27.06.2016 13:38 23,8 C 22,8 C 21,2 C 27,8 C 27,8 C 4,0 C 50 % 61 % 100 % 1017,8 hPa 0,0 l/m 2,6 km/h (1 Bft) S 180 5 min 12,7 C 27,8 C 4,2 km/h (1 Bft)
27.06.2016 13:43 23,9 C 22,8 C 21,2 C 28,2 C 28,2 C 4,3 C 49 % 59 % 100 % 1017,5 hPa 0,0 l/m 2,4 km/h (1 Bft) S 180 5 min 12,5 C 28,2 C 2,6 km/h (1 Bft)
27.06.2016 13:48 24,3 C 22,8 C 21,7 C 28,7 C 28,7 C 4,4 C 49 % 60 % 100 % 1017,5 hPa 0,0 l/m 3,1 km/h (1 Bft) SO 135 5 min 12,9 C 28,7 C 3,1 km/h (1 Bft)
27.06.2016 13:53 24,3 C 22,8 C 21,5 C 28,7 C 28,7 C 4,4 C 48 % 59 % 100 % 1017,5 hPa 0,0 l/m 2,6 km/h (1 Bft) S-SW 202 5 min 12,6 C 28,7 C 0,0 km/h (0 Bft)
27.06.2016 14:05 23,9 C 22,8 C 21,4 C 27,3 C 27,3 C 3,4 C 48 % 60 % 89 % 1017,3 hPa 0,0 l/m 2,4 km/h (1 Bft) W 270 12 min 12,2 C 27,3 C 4,2 km/h (1 Bft)
27.06.2016 14:15 24,4 C 22,9 C 22,1 C 28,8 C 28,8 C 4,4 C 48 % 58 % 100 % 1017,3 hPa 0,0 l/m 2,9 km/h (1 Bft) W-SW 247 10 min 12,7 C 28,8 C 2,7 km/h (1 Bft)
27.06.2016 14:25 24,8 C 22,9 C 22,0 C 28,9 C 28,9 C 4,1 C 45 % 56 % 100 % 1016,9 hPa 0,0 l/m 2,9 km/h (1 Bft) SO 135 10 min 12,0 C 28,9 C 2,6 km/h (1 Bft)
27.06.2016 14:30 24,0 C 22,9 C 21,7 C 27,0 C 27,0 C 3,0 C 45 % 56 % 79 % 1016,9 hPa 0,0 l/m 2,9 km/h (1 Bft) W-SW 247 0 min 11,3 C 27,0 C 6,0 km/h (2 Bft)
27.06.2016 14:35 23,6 C 22,9 C 21,9 C 26,6 C 26,6 C 3,0 C 47 % 57 % 79 % 1016,9 hPa 0,0 l/m 3,1 km/h (1 Bft) W-NW 292 0 min 11,6 C 26,6 C 12,9 km/h (3 Bft)
27.06.2016 14:40 23,9 C 22,9 C 22,0 C 27,3 C 27,3 C 3,4 C 48 % 57 % 89 % 1016,9 hPa 0,0 l/m 2,7 km/h (1 Bft) S-SW 202 5 min 12,2 C 27,3 C 3,1 km/h (1 Bft)
27.06.2016 14:45 23,9 C 22,9 C 22,0 C 27,4 C 27,4 C 3,5 C 48 % 58 % 92 % 1017,0 hPa 0,0 l/m 1,8 km/h (1 Bft) O-SO 112 5 min 12,2 C 27,4 C 3,7 km/h (1 Bft)
27.06.2016 14:50 23,9 C 22,9 C 21,8 C 27,3 C 27,3 C 3,4 C 47 % 57 % 89 % 1017,0 hPa 0,0 l/m 1,6 km/h (1 Bft) S-SO 157 5 min 11,9 C 27,3 C 0,0 km/h (0 Bft)
27.06.2016 14:55 23,7 C 22,9 C 21,6 C 26,7 C 26,7 C 3,0 C 47 % 57 % 79 % 1017,0 hPa 0,0 l/m 1,9 km/h (1 Bft) O-SO 112 0 min 11,7 C 26,7 C 1,9 km/h (1 Bft)
27.06.2016 15:00 23,4 C 22,9 C 21,7 C 26,1 C 26,1 C 2,7 C 48 % 59 % 71 % 1017,0 hPa 0,0 l/m 1,8 km/h (1 Bft) W 270 0 min 11,8 C 26,1 C 2,6 km/h (1 Bft)
27.06.2016 15:05 23,4 C 22,9 C 21,8 C 27,0 C 27,0 C 3,6 C 48 % 59 % 95 % 1016,8 hPa 0,0 l/m 1,9 km/h (1 Bft) W-SW 247 5 min 11,8 C 27,0 C 4,8 km/h (1 Bft)
27.06.2016 15:15 24,1 C 23,0 C 22,3 C 28,4 C 28,4 C 4,3 C 48 % 57 % 100 % 1016,8 hPa 0,0 l/m 3,2 km/h (1 Bft) NW 315 10 min 12,4 C 28,4 C 2,6 km/h (1 Bft)
27.06.2016 15:20 24,0 C 23,0 C 22,1 C 27,7 C 27,7 C 3,7 C 47 % 57 % 97 % 1016,8 hPa 0,0 l/m 2,6 km/h (1 Bft) W-SW 247 5 min 12,0 C 27,7 C 3,9 km/h (1 Bft)
27.06.2016 15:25 23,7 C 23,0 C 21,8 C 26,7 C 26,7 C 3,0 C 47 % 57 % 79 % 1016,7 hPa 0,0 l/m 1,9 km/h (1 Bft) W-SW 247 0 min 11,7 C 26,7 C 0,0 km/h (0 Bft)
27.06.2016 15:30 23,1 C 23,0 C 21,5 C 25,2 C 25,2 C 2,1 C 48 % 58 % 55 % 1016,7 hPa 0,0 l/m 2,1 km/h (1 Bft) W-SW 247 0 min 11,5 C 25,2 C 4,0 km/h (1 Bft)
27.06.2016 15:35 22,8 C 23,0 C 21,4 C 24,8 C 24,8 C 2,0 C 49 % 59 % 53 % 1016,7 hPa 0,0 l/m 2,1 km/h (1 Bft) N-NW 337 0 min 11,5 C 24,8 C 0,0 km/h (0 Bft)
27.06.2016 15:49 23,4 C 23,0 C 22,2 C 27,8 C 27,8 C 4,4 C 51 % 59 % 100 % 1016,8 hPa 0,0 l/m 2,1 km/h (1 Bft) N 0 14 min 12,7 C 27,8 C 4,7 km/h (1 Bft)
27.06.2016 16:11 24,2 C 23,1 C 24,3 C 30,5 C 30,5 C 6,3 C 47 % 55 % 100 % 1016,5 hPa 0,0 l/m 2,6 km/h (1 Bft) N-NW 337 22 min 12,2 C 30,5 C 4,2 km/h (1 Bft)
27.06.2016 16:12 24,2 C 23,1 C 24,3 C 30,5 C 30,5 C 6,3 C 47 % 55 % 100 % 1016,5 hPa 0,0 l/m 2,6 km/h (1 Bft) N-NW 337 1 min 12,2 C 30,5 C 4,2 km/h (1 Bft)
27.06.2016 16:13 24,2 C 23,1 C 24,3 C 30,5 C 30,5 C 6,3 C 47 % 55 % 100 % 1016,5 hPa 0,0 l/m 2,6 km/h (1 Bft) N-NW 337 1 min 12,2 C 30,5 C 4,2 km/h (1 Bft)
27.06.2016 16:14 24,1 C 23,1 C 24,4 C 30,5 C 30,5 C 6,4 C 48 % 54 % 100 % 1016,5 hPa 0,0 l/m 2,9 km/h (1 Bft) SW 225 1 min 12,4 C 30,5 C 2,6 km/h (1 Bft)
27.06.2016 16:17 24,1 C 23,1 C 24,4 C 30,5 C 30,5 C 6,4 C 48 % 54 % 100 % 1016,5 hPa 0,0 l/m 2,9 km/h (1 Bft) SW 225 3 min 12,4 C 30,5 C 2,6 km/h (1 Bft)
27.06.2016 16:25 24,0 C 23,1 C 25,6 C 30,9 C 30,9 C 6,9 C 47 % 54 % 100 % 1016,6 hPa 0,0 l/m 3,2 km/h (1 Bft) S 180 8 min 12,0 C 30,9 C 2,1 km/h (1 Bft)
27.06.2016 16:37 23,4 C 23,2 C 24,7 C 28,9 C 28,9 C 5,5 C 48 % 50 % 100 % 1016,6 hPa 0,0 l/m 2,6 km/h (1 Bft) W 270 12 min 11,8 C 28,9 C 2,3 km/h (1 Bft)
27.06.2016 16:47 23,4 C 23,2 C 24,9 C 27,9 C 27,9 C 4,5 C 48 % 51 % 100 % 1016,4 hPa 0,0 l/m 2,4 km/h (1 Bft) S-SO 157 10 min 11,8 C 27,9 C 4,8 km/h (1 Bft)
27.06.2016 16:50 23,1 C 23,2 C 23,7 C 26,5 C 26,5 C 3,4 C 47 % 50 % 89 % 1016,4 hPa 0,0 l/m 2,7 km/h (1 Bft) W-SW 247 3 min 11,2 C 26,5 C 3,2 km/h (1 Bft)
27.06.2016 16:51 23,1 C 23,2 C 23,7 C 26,5 C 26,5 C 3,4 C 47 % 50 % 89 % 1016,4 hPa 0,0 l/m 2,7 km/h (1 Bft) W-SW 247 1 min 11,2 C 26,5 C 3,2 km/h (1 Bft)
27.06.2016 16:52 23,1 C 23,2 C 23,7 C 26,5 C 26,5 C 3,4 C 47 % 50 % 89 % 1016,4 hPa 0,0 l/m 2,7 km/h (1 Bft) W-SW 247 1 min 11,2 C 26,5 C 3,2 km/h (1 Bft)
27.06.2016 16:53 23,1 C 23,2 C 23,7 C 26,5 C 26,5 C 3,4 C 47 % 50 % 89 % 1016,4 hPa 0,0 l/m 2,7 km/h (1 Bft) W-SW 247 1 min 11,2 C 26,5 C 3,2 km/h (1 Bft)
27.06.2016 16:56 23,1 C 23,2 C 23,9 C 26,1 C 26,1 C 3,0 C 48 % 52 % 79 % 1016,4 hPa 0,0 l/m 2,1 km/h (1 Bft) W-NW 292 0 min 11,5 C 26,1 C 3,5 km/h (1 Bft)
27.06.2016 17:05 23,3 C 23,2 C 24,7 C 28,6 C 28,6 C 5,3 C 49 % 52 % 100 % 1016,7 hPa 0,0 l/m 2,1 km/h (1 Bft) W-SW 247 9 min 12,0 C 28,6 C 3,9 km/h (1 Bft)
27.06.2016 17:10 23,3 C 23,2 C 24,3 C 28,6 C 28,6 C 5,3 C 47 % 49 % 100 % 1016,7 hPa 0,0 l/m 3,2 km/h (1 Bft) S-SO 157 5 min 11,3 C 28,6 C 5,8 km/h (2 Bft)
27.06.2016 17:20 23,1 C 23,2 C 25,2 C 27,9 C 27,9 C 4,8 C 47 % 50 % 100 % 1016,7 hPa 0,0 l/m 2,4 km/h (1 Bft) S-SW 202 10 min 11,2 C 27,9 C 3,5 km/h (1 Bft)
27.06.2016 17:25 23,1 C 23,2 C 24,8 C 28,7 C 28,7 C 5,6 C 48 % 50 % 100 % 1016,7 hPa 0,0 l/m 1,9 km/h (1 Bft) S-SO 157 5 min 11,5 C 28,7 C 1,6 km/h (1 Bft)
27.06.2016 17:30 23,1 C 23,2 C 24,8 C 28,6 C 28,6 C 5,5 C 47 % 50 % 100 % 1016,7 hPa 0,0 l/m 1,8 km/h (1 Bft) S-SW 202 5 min 11,2 C 28,6 C 4,8 km/h (1 Bft)
27.06.2016 17:35 23,2 C 23,3 C 25,6 C 29,0 C 29,0 C 5,8 C 48 % 51 % 100 % 1016,7 hPa 0,0 l/m 1,9 km/h (1 Bft) S 180 5 min 11,6 C 29,0 C 2,6 km/h (1 Bft)
27.06.2016 17:40 23,2 C 23,3 C 25,1 C 28,9 C 28,9 C 5,7 C 47 % 47 % 100 % 1016,7 hPa 0,0 l/m 3,2 km/h (1 Bft) NW 315 5 min 11,3 C 28,9 C 4,3 km/h (1 Bft)
27.06.2016 17:45 23,1 C 23,3 C 24,1 C 27,7 C 27,7 C 4,6 C 48 % 49 % 100 % 1016,3 hPa 0,0 l/m 2,9 km/h (1 Bft) SW 225 5 min 11,5 C 27,7 C 2,9 km/h (1 Bft)
27.06.2016 17:50 23,1 C 23,3 C 23,8 C 27,6 C 27,6 C 4,5 C 49 % 51 % 100 % 1016,3 hPa 0,0 l/m 2,3 km/h (1 Bft) SW 225 5 min 11,8 C 27,6 C 2,4 km/h (1 Bft)
27.06.2016 17:55 23,1 C 23,3 C 23,6 C 27,3 C 27,3 C 4,2 C 48 % 51 % 100 % 1016,3 hPa 0,0 l/m 2,4 km/h (1 Bft) N-NO 22 5 min 11,5 C 27,3 C 1,6 km/h (1 Bft)
27.06.2016 18:00 23,1 C 23,3 C 23,1 C 26,5 C 26,5 C 3,4 C 48 % 53 % 89 % 1016,3 hPa 0,0 l/m 1,6 km/h (1 Bft) W-SW 247 5 min 11,5 C 26,5 C 2,6 km/h (1 Bft)
27.06.2016 18:05 23,1 C 23,3 C 22,9 C 26,4 C 26,4 C 3,3 C 48 % 53 % 87 % 1016,2 hPa 0,0 l/m 1,0 km/h (0 Bft) W-SW 247 5 min 11,5 C 26,4 C 1,6 km/h (1 Bft)
27.06.2016 18:15 23,0 C 23,3 C 22,7 C 26,6 C 26,6 C 3,6 C 48 % 54 % 95 % 1016,2 hPa 0,0 l/m 1,1 km/h (1 Bft) W 270 10 min 11,4 C 26,6 C 2,1 km/h (1 Bft)
27.06.2016 18:20 22,9 C 23,3 C 22,3 C 25,3 C 25,3 C 2,4 C 48 % 54 % 63 % 1016,2 hPa 0,0 l/m 1,6 km/h (1 Bft) W 270 0 min 11,3 C 25,3 C 0,0 km/h (0 Bft)
27.06.2016 18:25 22,9 C 23,3 C 22,0 C 24,7 C 24,7 C 1,8 C 49 % 56 % 47 % 1016,4 hPa 0,0 l/m 1,3 km/h (1 Bft) W-SW 247 0 min 11,6 C 24,7 C 1,8 km/h (1 Bft)
27.06.2016 18:30 22,6 C 23,3 C 21,9 C 24,0 C 24,0 C 1,4 C 48 % 55 % 37 % 1016,4 hPa 0,0 l/m 1,0 km/h (0 Bft) SW 225 0 min 11,0 C 24,0 C 0,0 km/h (0 Bft)
27.06.2016 18:35 22,6 C 23,3 C 22,1 C 24,1 C 24,1 C 1,5 C 49 % 55 % 39 % 1016,4 hPa 0,0 l/m 1,3 km/h (1 Bft) NW 315 0 min 11,3 C 24,1 C 1,6 km/h (1 Bft)
27.06.2016 18:49 23,2 C 23,4 C 22,7 C 28,8 C 28,8 C 5,6 C 49 % 55 % 100 % 1016,5 hPa 0,0 l/m 1,4 km/h (1 Bft) N 0 14 min 11,9 C 28,8 C 2,6 km/h (1 Bft)
27.06.2016 19:11 22,6 C 23,4 C 21,9 C 25,4 C 25,4 C 2,8 C 47 % 55 % 74 % 1016,6 hPa 0,0 l/m 1,3 km/h (1 Bft) W 270 0 min 10,7 C 25,4 C 0,0 km/h (0 Bft)
27.06.2016 19:12 22,6 C 23,4 C 21,9 C 25,4 C 25,4 C 2,8 C 47 % 55 % 74 % 1016,6 hPa 0,0 l/m 1,3 km/h (1 Bft) W 270 0 min 10,7 C 25,4 C 0,0 km/h (0 Bft)
27.06.2016 19:13 22,6 C 23,4 C 21,9 C 25,4 C 25,4 C 2,8 C 47 % 55 % 74 % 1016,6 hPa 0,0 l/m 1,3 km/h (1 Bft) W 270 0 min 10,7 C 25,4 C 0,0 km/h (0 Bft)
27.06.2016 19:18 22,6 C 23,4 C 22,1 C 26,3 C 26,3 C 3,7 C 48 % 55 % 97 % 1016,6 hPa 0,0 l/m 1,0 km/h (0 Bft) S-SW 202 5 min 11,0 C 26,3 C 0,0 km/h (0 Bft)
27.06.2016 19:29 22,7 C 23,4 C 21,8 C 25,8 C 25,8 C 3,1 C 47 % 54 % 82 % 1016,5 hPa 0,0 l/m 1,8 km/h (1 Bft) W-NW 292 11 min 10,8 C 25,8 C 2,1 km/h (1 Bft)
27.06.2016 19:30 22,7 C 23,4 C 21,8 C 25,8 C 25,8 C 3,1 C 47 % 54 % 82 % 1016,5 hPa 0,0 l/m 1,8 km/h (1 Bft) W-NW 292 1 min 10,8 C 25,8 C 2,1 km/h (1 Bft)
27.06.2016 19:31 22,7 C 23,4 C 21,8 C 25,8 C 25,8 C 3,1 C 47 % 54 % 82 % 1016,5 hPa 0,0 l/m 1,8 km/h (1 Bft) W-NW 292 1 min 10,8 C 25,8 C 2,1 km/h (1 Bft)
27.06.2016 19:32 22,7 C 23,4 C 21,8 C 25,8 C 25,8 C 3,1 C 47 % 54 % 82 % 1016,5 hPa 0,0 l/m 1,8 km/h (1 Bft) W-NW 292 1 min 10,8 C 25,8 C 2,1 km/h (1 Bft)
27.06.2016 19:33 22,7 C 23,4 C 21,8 C 25,8 C 25,8 C 3,1 C 47 % 54 % 82 % 1016,5 hPa 0,0 l/m 1,8 km/h (1 Bft) W-NW 292 1 min 10,8 C 25,8 C 2,1 km/h (1 Bft)
27.06.2016 19:36 22,4 C 23,4 C 21,5 C 24,4 C 24,4 C 2,0 C 47 % 54 % 53 % 1016,5 hPa 0,0 l/m 1,3 km/h (1 Bft) S 180 0 min 10,5 C 24,4 C 0,0 km/h (0 Bft)
27.06.2016 19:41 22,3 C 23,4 C 21,6 C 24,6 C 24,6 C 2,3 C 47 % 55 % 61 % 1016,5 hPa 0,0 l/m 1,0 km/h (0 Bft) S-SO 157 0 min 10,4 C 24,6 C 1,9 km/h (1 Bft)
27.06.2016 19:50 22,3 C 23,4 C 21,7 C 26,0 C 26,0 C 3,7 C 48 % 55 % 97 % 1016,4 hPa 0,0 l/m 1,8 km/h (1 Bft) S 180 9 min 10,8 C 26,0 C 3,4 km/h (1 Bft)
27.06.2016 19:55 22,1 C 23,4 C 21,6 C 26,1 C 26,1 C 4,0 C 48 % 55 % 100 % 1016,4 hPa 0,0 l/m 1,6 km/h (1 Bft) NW 315 5 min 10,6 C 26,1 C 2,3 km/h (1 Bft)
27.06.2016 20:00 22,1 C 23,4 C 21,5 C 26,2 C 26,2 C 4,1 C 49 % 55 % 100 % 1016,4 hPa 0,0 l/m 1,3 km/h (1 Bft) S 180 5 min 10,9 C 26,2 C 3,4 km/h (1 Bft)
27.06.2016 20:05 21,9 C 23,4 C 21,5 C 26,2 C 26,2 C 4,3 C 49 % 56 % 100 % 1016,4 hPa 0,0 l/m 1,0 km/h (0 Bft) S 180 5 min 10,7 C 26,2 C 0,0 km/h (0 Bft)
27.06.2016 20:14 21,8 C 23,4 C 21,3 C 23,4 C 23,4 C 1,6 C 49 % 57 % 42 % 1016,4 hPa 0,0 l/m 0,6 km/h (0 Bft) S 180 9 min 10,6 C 23,4 C 0,0 km/h (0 Bft)
27.06.2016 20:15 21,8 C 23,4 C 21,3 C 23,4 C 23,4 C 1,6 C 49 % 57 % 42 % 1016,4 hPa 0,0 l/m 0,6 km/h (0 Bft) S 180 1 min 10,6 C 23,4 C 0,0 km/h (0 Bft)
27.06.2016 20:16 21,8 C 23,4 C 21,3 C 23,4 C 23,4 C 1,6 C 49 % 57 % 42 % 1016,4 hPa 0,0 l/m 0,6 km/h (0 Bft) S 180 1 min 10,6 C 23,4 C 0,0 km/h (0 Bft)
27.06.2016 20:17 21,8 C 23,4 C 21,3 C 23,4 C 23,4 C 1,6 C 49 % 57 % 42 % 1016,4 hPa 0,0 l/m 0,6 km/h (0 Bft) S 180 1 min 10,6 C 23,4 C 0,0 km/h (0 Bft)
27.06.2016 20:18 21,8 C 23,4 C 21,3 C 23,4 C 23,4 C 1,6 C 49 % 57 % 42 % 1016,4 hPa 0,0 l/m 0,6 km/h (0 Bft) S 180 1 min 10,6 C 23,4 C 0,0 km/h (0 Bft)
27.06.2016 20:20 21,6 C 23,4 C 21,2 C 22,2 C 22,2 C 0,6 C 50 % 57 % 16 % 1016,4 hPa 0,0 l/m 0,3 km/h (0 Bft) S 180 0 min 10,7 C 22,2 C 3,1 km/h (1 Bft)
27.06.2016 20:25 21,5 C 23,4 C 21,1 C 21,7 C 21,7 C 0,2 C 50 % 58 % 5 % 1016,6 hPa 0,0 l/m 0,3 km/h (0 Bft) SW 225 0 min 10,6 C 21,7 C 0,0 km/h (0 Bft)
27.06.2016 20:28 21,5 C 23,5 C 20,9 C 21,4 C 21,1 C 0,0 C 50 % 58 % 0 % 1016,6 hPa 0,0 l/m 0,5 km/h (0 Bft) SW 225 0 min 10,6 C 21,1 C 0,0 km/h (0 Bft)
27.06.2016 20:33 21,2 C 23,5 C 20,7 C 21,0 C 20,7 C 0,0 C 51 % 58 % 0 % 1016,6 hPa 0,0 l/m 0,2 km/h (0 Bft) W-SW 247 0 min 10,7 C 20,7 C 1,9 km/h (1 Bft)
27.06.2016 20:38 21,1 C 23,5 C 20,5 C 20,8 C 20,2 C 0,0 C 51 % 58 % 0 % 1016,6 hPa 0,0 l/m 0,2 km/h (0 Bft) W-SW 247 0 min 10,6 C 20,2 C 0,0 km/h (0 Bft)
27.06.2016 20:43 21,0 C 23,5 C 20,4 C 20,7 C 20,0 C 0,0 C 52 % 59 % 0 % 1016,8 hPa 0,0 l/m 0,6 km/h (0 Bft) SW 225 0 min 10,8 C 20,0 C 2,9 km/h (1 Bft)
27.06.2016 20:51 20,8 C 23,5 C 20,3 C 20,4 C 19,6 C 0,0 C 52 % 59 % 0 % 1016,8 hPa 0,0 l/m 1,3 km/h (1 Bft) S-SO 157 0 min 10,6 C 19,6 C 2,4 km/h (1 Bft)
27.06.2016 21:00 20,4 C 23,4 C 19,9 C 19,9 C 19,0 C 0,0 C 53 % 59 % 0 % 1016,8 hPa 0,0 l/m 0,3 km/h (0 Bft) S 180 0 min 10,5 C 19,0 C 0,0 km/h (0 Bft)
27.06.2016 21:05 20,3 C 23,4 C 19,7 C 19,7 C 18,6 C 0,0 C 53 % 61 % 0 % 1017,1 hPa 0,0 l/m 0,2 km/h (0 Bft) W-SW 247 0 min 10,4 C 18,6 C 0,0 km/h (0 Bft)
27.06.2016 21:10 19,9 C 23,4 C 19,3 C 19,3 C 18,1 C 0,0 C 55 % 62 % 0 % 1017,1 hPa 0,0 l/m 0,0 km/h (0 Bft) S 180 0 min 10,6 C 18,1 C 0,0 km/h (0 Bft)
27.06.2016 21:15 19,7 C 23,5 C 19,0 C 19,0 C 17,7 C 0,0 C 55 % 63 % 0 % 1017,1 hPa 0,0 l/m 0,0 km/h (0 Bft) W-NW 292 0 min 10,4 C 17,7 C 0,0 km/h (0 Bft)
27.06.2016 21:20 19,5 C 23,5 C 18,9 C 18,8 C 17,3 C 0,0 C 56 % 64 % 0 % 1017,1 hPa 0,0 l/m 0,0 km/h (0 Bft) W 270 0 min 10,5 C 17,3 C 0,0 km/h (0 Bft)
27.06.2016 21:25 19,2 C 23,5 C 18,7 C 18,5 C 17,0 C 0,0 C 57 % 64 % 0 % 1017,2 hPa 0,0 l/m 0,0 km/h (0 Bft) W 270 0 min 10,5 C 17,0 C 0,0 km/h (0 Bft)
27.06.2016 21:30 18,9 C 23,5 C 18,4 C 18,1 C 16,6 C 0,0 C 58 % 66 % 0 % 1017,2 hPa 0,0 l/m 0,0 km/h (0 Bft) W 270 0 min 10,5 C 16,6 C 0,0 km/h (0 Bft)
27.06.2016 21:35 18,7 C 23,5 C 18,2 C 18,0 C 16,5 C 0,0 C 59 % 66 % 0 % 1017,2 hPa 0,0 l/m 0,0 km/h (0 Bft) S-SO 157 0 min 10,5 C 16,5 C 0,0 km/h (0 Bft)
27.06.2016 21:49 17,9 C 23,5 C 17,5 C 17,2 C 15,8 C 0,0 C 61 % 68 % 0 % 1017,4 hPa 0,0 l/m 0,0 km/h (0 Bft) N 0 0 min 10,3 C 15,8 C 1,9 km/h (1 Bft)
27.06.2016 22:09 17,2 C 23,5 C 17,1 C 16,5 C 15,2 C 0,0 C 64 % 71 % 0 % 1017,6 hPa 0,0 l/m 0,0 km/h (0 Bft) S-SW 202 0 min 10,3 C 15,2 C 0,0 km/h (0 Bft)
27.06.2016 22:10 17,2 C 23,5 C 17,1 C 16,5 C 15,2 C 0,0 C 64 % 71 % 0 % 1017,6 hPa 0,0 l/m 0,0 km/h (0 Bft) S-SW 202 0 min 10,3 C 15,2 C 0,0 km/h (0 Bft)
27.06.2016 22:11 17,2 C 23,5 C 17,1 C 16,5 C 15,2 C 0,0 C 64 % 71 % 0 % 1017,6 hPa 0,0 l/m 0,0 km/h (0 Bft) S-SW 202 0 min 10,3 C 15,2 C 0,0 km/h (0 Bft)
27.06.2016 22:12 17,2 C 23,5 C 17,1 C 16,5 C 15,2 C 0,0 C 64 % 71 % 0 % 1017,6 hPa 0,0 l/m 0,0 km/h (0 Bft) S-SW 202 0 min 10,3 C 15,2 C 0,0 km/h (0 Bft)
27.06.2016 22:13 17,2 C 23,5 C 17,1 C 16,5 C 15,2 C 0,0 C 64 % 71 % 0 % 1017,6 hPa 0,0 l/m 0,0 km/h (0 Bft) S-SW 202 0 min 10,3 C 15,2 C 0,0 km/h (0 Bft)
27.06.2016 22:16 17,1 C 23,5 C 17,0 C 16,4 C 15,0 C 0,0 C 65 % 71 % 0 % 1017,6 hPa 0,0 l/m 0,0 km/h (0 Bft) O-NO 67 0 min 10,5 C 15,0 C 0,0 km/h (0 Bft)
27.06.2016 22:25 16,7 C 23,6 C 16,5 C 16,0 C 14,7 C 0,0 C 66 % 71 % 0 % 1017,6 hPa 0,0 l/m 0,0 km/h (0 Bft) NW 315 0 min 10,3 C 14,7 C 0,0 km/h (0 Bft)
27.06.2016 22:30 16,5 C 23,6 C 16,3 C 15,8 C 14,5 C 0,0 C 66 % 72 % 0 % 1017,6 hPa 0,0 l/m 0,0 km/h (0 Bft) S-SO 157 0 min 10,1 C 14,5 C 0,0 km/h (0 Bft)
27.06.2016 22:35 16,4 C 23,6 C 16,3 C 15,7 C 14,3 C 0,0 C 67 % 72 % 0 % 1017,6 hPa 0,0 l/m 0,0 km/h (0 Bft) W-SW 247 0 min 10,3 C 14,3 C 0,0 km/h (0 Bft)
27.06.2016 22:40 16,2 C 23,6 C 16,0 C 15,5 C 14,2 C 0,0 C 68 % 73 % 0 % 1017,6 hPa 0,0 l/m 0,0 km/h (0 Bft) SW 225 0 min 10,3 C 14,2 C 0,0 km/h (0 Bft)
27.06.2016 22:45 16,0 C 23,6 C 15,9 C 15,4 C 14,1 C 0,0 C 68 % 74 % 0 % 1018,4 hPa 0,0 l/m 0,0 km/h (0 Bft) SW 225 0 min 10,1 C 14,1 C 0,0 km/h (0 Bft)
27.06.2016 22:50 15,9 C 23,6 C 15,8 C 15,3 C 14,1 C 0,0 C 69 % 74 % 0 % 1018,4 hPa 0,0 l/m 0,0 km/h (0 Bft) O 90 0 min 10,2 C 14,1 C 0,0 km/h (0 Bft)
27.06.2016 22:55 15,6 C 23,6 C 15,6 C 15,0 C 13,9 C 0,0 C 70 % 74 % 0 % 1018,4 hPa 0,0 l/m 0,0 km/h (0 Bft) NO 45 0 min 10,1 C 13,9 C 0,0 km/h (0 Bft)
27.06.2016 23:00 15,5 C 23,6 C 15,6 C 15,0 C 13,9 C 0,0 C 70 % 75 % 0 % 1018,4 hPa 0,0 l/m 0,0 km/h (0 Bft) O-SO 112 0 min 10,1 C 13,9 C 0,0 km/h (0 Bft)
27.06.2016 23:05 15,4 C 23,6 C 15,5 C 14,9 C 13,9 C 0,0 C 71 % 75 % 0 % 1018,0 hPa 0,0 l/m 0,0 km/h (0 Bft) O-NO 67 0 min 10,2 C 13,9 C 0,0 km/h (0 Bft)
27.06.2016 23:10 15,3 C 23,5 C 15,5 C 14,9 C 14,0 C 0,0 C 72 % 75 % 0 % 1018,0 hPa 0,0 l/m 0,0 km/h (0 Bft) S 180 0 min 10,3 C 14,0 C 0,0 km/h (0 Bft)
27.06.2016 23:15 15,2 C 23,5 C 15,4 C 14,8 C 14,1 C 0,0 C 72 % 75 % 0 % 1018,0 hPa 0,0 l/m 0,0 km/h (0 Bft) O-NO 67 0 min 10,2 C 14,1 C 0,0 km/h (0 Bft)
27.06.2016 23:20 15,1 C 23,5 C 15,3 C 14,8 C 14,2 C 0,0 C 73 % 76 % 0 % 1018,0 hPa 0,0 l/m 0,0 km/h (0 Bft) O-NO 67 0 min 10,3 C 14,2 C 0,0 km/h (0 Bft)
27.06.2016 23:25 15,0 C 23,5 C 15,3 C 14,8 C 14,3 C 0,0 C 73 % 76 % 0 % 1017,6 hPa 0,0 l/m 0,0 km/h (0 Bft) O-NO 67 0 min 10,2 C 14,3 C 0,0 km/h (0 Bft)
27.06.2016 23:35 15,1 C 23,5 C 15,4 C 15,0 C 14,7 C 0,0 C 73 % 76 % 0 % 1017,6 hPa 0,0 l/m 0,0 km/h (0 Bft) NW 315 0 min 10,3 C 14,7 C 0,0 km/h (0 Bft)
27.06.2016 23:40 15,0 C 23,5 C 15,5 C 14,9 C 14,8 C 0,0 C 74 % 76 % 0 % 1017,6 hPa 0,0 l/m 0,0 km/h (0 Bft) NO 45 0 min 10,4 C 14,8 C 0,0 km/h (0 Bft)
27.06.2016 23:50 15,1 C 23,5 C 15,7 C 15,1 C 15,0 C 0,0 C 74 % 76 % 0 % 1017,8 hPa 0,0 l/m 0,0 km/h (0 Bft) NO 45 0 min 10,5 C 15,0 C 0,0 km/h (0 Bft)
_ Min-Zeit 05:15 10:45 05:15 04:31 04:31 00:00 14:25 17:40 00:00 18:05 - 00:00 - - - 05:15 04:31 00:00
Minimum _ 10,9 C 22,7 C 12,8 C 11,2 C 11,2 C 0,0 C 45 % 47 % 0 % 1016,2 hPa - 0,0 km/h (0 Bft) - - - 8,5 C 11,2 C 0,0 km/h (0 Bft)
_ Max-Zeit 14:25 01:35 16:25 16:25 16:25 07:30 01:45 01:45 07:21 09:45 00:00 12:30 - - 07:21 07:50 16:25 14:35
Maximum _ 24,8 C 24,0 C 25,6 C 30,9 C 30,9 C 10,4 C 85 % 88 % 100 % 1018,8 hPa 0,0 l/m 3,2 km/h
SW (1 Bft)
- - 25 min 13,0 C 30,9 C 12,9 km/h
W-NW (3 Bft)
Durchschnitt _ 18,0 C 23,2 C 18,0 C 20,6 C 20,5 C 2,8 C 66 % 71 % 52 % 1017,4 hPa #0,0 l/m 1,1 km/h (1 Bft) SW - #11:48 h 11,0 C 20,5 C 1,6 km/h (1 Bft)
2016 www.wetterstation-wechselburg.de